M/V Taku — WI9491 — position and weather

sailwx.info

Track history (hours):
 
Tides and Currents Weather Stations Pressure Air Temp Water Temp Dewpoint Dewpoint Depression Visibility Wind Speed Wind Dir Waves Ship Positions

M/V Taku

More information available from US FCC via Universal Licensing System and Coast Guard Vessel Documentation Center.

Last reported at 2014-Aug-28 16:30 UTC. Time now 2014-Aug-30 12:28 UTC.
Position N 54°16' W 130°22'.

Type: Ship. MMSI: 338697000.

Date/timePositionNaut miles runAvg speedWind from/ knotsBaromVisibWave heightAir tempDewpointWater temp
2014-Aug-28 16:30N 54°16' W 130°22'1 1.5
2014-Aug-28 15:32N 54°18' W 130°21'0 0.0
2014-Aug-28 14:32N 54°18' W 130°21'0 0.0
2014-Aug-28 13:32N 54°18' W 130°21'5 3.5
2014-Aug-28 12:05N 54°15' W 130°29'1014.8
2014-Aug-28 11:26N 54°24' W 130°37'  
2014-Aug-21 16:30N 54°27' W 130°37'14 9.7
2014-Aug-21 15:06N 54°16' W 130°22'1 2.4
2014-Aug-21 14:31N 54°18' W 130°21'0 0.0
2014-Aug-21 13:31N 54°18' W 130°21'0 0.0
2014-Aug-21 12:31N 54°18' W 130°21'0 0.3
2014-Aug-21 11:34N 54°18' W 130°22'7 6.5
2014-Aug-21 10:33N 54°17' W 130°33'283 7.3
2014-Aug-19 20:00N 58°18' W 135°00'   220 / 51016.6 5.4 15.0
Track history (hours):
 
Tides and Currents Weather Stations Pressure Air Temp Water Temp Dewpoint Dewpoint Depression Visibility Wind Speed Wind Dir Waves Ship Positions

M/V Taku

More information available from US FCC via Universal Licensing System and Coast Guard Vessel Documentation Center.

Last reported at 2014-Aug-28 16:30 UTC. Time now 2014-Aug-30 12:28 UTC.
Position N 54°16' W 130°22'.

Type: Ship. MMSI: 338697000.

Date/timePositionNaut miles runAvg speedWind from/ knotsBaromVisibWave heightAir tempDewpointWater temp
2014-Aug-28 16:30N 54°16' W 130°22'1 1.5
2014-Aug-28 15:32N 54°18' W 130°21'0 0.0
2014-Aug-28 14:32N 54°18' W 130°21'0 0.0
2014-Aug-28 13:32N 54°18' W 130°21'5 3.5
2014-Aug-28 12:05N 54°15' W 130°29'1014.8
2014-Aug-28 11:26N 54°24' W 130°37'  
2014-Aug-21 16:30N 54°27' W 130°37'14 9.7
2014-Aug-21 15:06N 54°16' W 130°22'1 2.4
2014-Aug-21 14:31N 54°18' W 130°21'0 0.0
2014-Aug-21 13:31N 54°18' W 130°21'0 0.0
2014-Aug-21 12:31N 54°18' W 130°21'0 0.3
2014-Aug-21 11:34N 54°18' W 130°22'7 6.5
2014-Aug-21 10:33N 54°17' W 130°33'283 7.3
2014-Aug-19 20:00N 58°18' W 135°00'   220 / 51016.6 5.4 15.0

Dump ship's entire track history